sensor_id;sensor_type;location;lat;lon;timestamp;temperature;humidity
31387;DHT22;69978;50.096;8.448;2024-01-15T00:01:50;-1.60;99.90
31387;DHT22;69978;50.096;8.448;2024-01-15T00:04:16;-1.60;99.90
31387;DHT22;69978;50.096;8.448;2024-01-15T00:06:42;-1.70;99.90
31387;DHT22;69978;50.096;8.448;2024-01-15T00:09:07;-1.60;99.90
31387;DHT22;69978;50.096;8.448;2024-01-15T00:11:33;-1.60;99.90
31387;DHT22;69978;50.096;8.448;2024-01-15T00:14:01;-1.60;99.90
31387;DHT22;69978;50.096;8.448;2024-01-15T00:16:29;-1.60;99.90
31387;DHT22;69978;50.096;8.448;2024-01-15T00:18:54;-1.60;99.90
31387;DHT22;69978;50.096;8.448;2024-01-15T00:21:23;-1.60;99.90
31387;DHT22;69978;50.096;8.448;2024-01-15T00:23:51;-1.60;99.90
31387;DHT22;69978;50.096;8.448;2024-01-15T00:26:17;-1.60;99.90
31387;DHT22;69978;50.096;8.448;2024-01-15T00:28:43;-1.60;99.90
31387;DHT22;69978;50.096;8.448;2024-01-15T00:31:20;-1.60;99.90
31387;DHT22;69978;50.096;8.448;2024-01-15T00:33:48;-1.70;99.90
31387;DHT22;69978;50.096;8.448;2024-01-15T00:36:13;-1.70;99.90
31387;DHT22;69978;50.096;8.448;2024-01-15T00:38:47;-1.70;99.90
31387;DHT22;69978;50.096;8.448;2024-01-15T00:41:15;-1.60;99.90
31387;DHT22;69978;50.096;8.448;2024-01-15T00:43:48;-1.60;99.90
31387;DHT22;69978;50.096;8.448;2024-01-15T00:46:16;-1.60;99.90
31387;DHT22;69978;50.096;8.448;2024-01-15T00:48:42;-1.70;99.90
31387;DHT22;69978;50.096;8.448;2024-01-15T00:51:10;-1.70;99.90
31387;DHT22;69978;50.096;8.448;2024-01-15T00:53:36;-1.60;99.90
31387;DHT22;69978;50.096;8.448;2024-01-15T00:56:06;-1.60;99.90
31387;DHT22;69978;50.096;8.448;2024-01-15T00:58:56;-1.60;99.90
31387;DHT22;69978;50.096;8.448;2024-01-15T01:01:31;-1.60;99.90
31387;DHT22;69978;50.096;8.448;2024-01-15T01:04:04;-1.60;99.90
31387;DHT22;69978;50.096;8.448;2024-01-15T01:06:29;-1.60;99.90
31387;DHT22;69978;50.096;8.448;2024-01-15T01:08:58;-1.60;99.90
31387;DHT22;69978;50.096;8.448;2024-01-15T01:11:26;-1.70;99.90
31387;DHT22;69978;50.096;8.448;2024-01-15T01:14:18;-1.60;99.90
31387;DHT22;69978;50.096;8.448;2024-01-15T01:16:53;-1.60;99.90
31387;DHT22;69978;50.096;8.448;2024-01-15T01:19:28;-1.60;99.90
31387;DHT22;69978;50.096;8.448;2024-01-15T01:22:04;-1.50;99.90
31387;DHT22;69978;50.096;8.448;2024-01-15T01:24:34;-1.60;99.90
31387;DHT22;69978;50.096;8.448;2024-01-15T01:27:00;-1.50;99.90
31387;DHT22;69978;50.096;8.448;2024-01-15T01:29:25;-1.40;99.90
31387;DHT22;69978;50.096;8.448;2024-01-15T01:31:52;-1.40;99.90
31387;DHT22;69978;50.096;8.448;2024-01-15T01:34:17;-1.40;99.90
31387;DHT22;69978;50.096;8.448;2024-01-15T01:36:43;-1.40;99.90
31387;DHT22;69978;50.096;8.448;2024-01-15T01:39:11;-1.30;99.90
31387;DHT22;69978;50.096;8.448;2024-01-15T01:41:42;-1.30;99.90
31387;DHT22;69978;50.096;8.448;2024-01-15T01:44:08;-1.30;99.90
31387;DHT22;69978;50.096;8.448;2024-01-15T01:46:34;-1.40;99.90
31387;DHT22;69978;50.096;8.448;2024-01-15T01:49:05;-1.40;99.90
31387;DHT22;69978;50.096;8.448;2024-01-15T01:51:35;-1.30;99.90
31387;DHT22;69978;50.096;8.448;2024-01-15T01:54:03;-1.40;99.90
31387;DHT22;69978;50.096;8.448;2024-01-15T01:56:34;-1.30;99.90
31387;DHT22;69978;50.096;8.448;2024-01-15T01:59:06;-1.30;99.90
31387;DHT22;69978;50.096;8.448;2024-01-15T02:01:33;-1.30;99.90
31387;DHT22;69978;50.096;8.448;2024-01-15T02:04:01;-1.30;99.90
31387;DHT22;69978;50.096;8.448;2024-01-15T02:06:28;-1.30;99.90
31387;DHT22;69978;50.096;8.448;2024-01-15T02:08:55;-1.30;99.90
31387;DHT22;69978;50.096;8.448;2024-01-15T02:11:20;-1.30;99.90
31387;DHT22;69978;50.096;8.448;2024-01-15T02:13:49;-1.30;99.90
31387;DHT22;69978;50.096;8.448;2024-01-15T02:16:15;-1.40;99.90
31387;DHT22;69978;50.096;8.448;2024-01-15T02:18:44;-1.30;99.90
31387;DHT22;69978;50.096;8.448;2024-01-15T02:21:10;-1.30;99.90
31387;DHT22;69978;50.096;8.448;2024-01-15T02:23:37;-1.30;99.90
31387;DHT22;69978;50.096;8.448;2024-01-15T02:26:04;-1.20;99.90
31387;DHT22;69978;50.096;8.448;2024-01-15T02:28:30;-1.20;99.90
31387;DHT22;69978;50.096;8.448;2024-01-15T02:31:00;-1.20;99.90
31387;DHT22;69978;50.096;8.448;2024-01-15T02:33:28;-1.20;99.90
31387;DHT22;69978;50.096;8.448;2024-01-15T02:35:54;-1.20;99.90
31387;DHT22;69978;50.096;8.448;2024-01-15T02:38:20;-1.20;99.90
31387;DHT22;69978;50.096;8.448;2024-01-15T02:40:46;-1.30;99.90
31387;DHT22;69978;50.096;8.448;2024-01-15T02:43:12;-1.30;99.90
31387;DHT22;69978;50.096;8.448;2024-01-15T02:45:40;-1.20;99.90
31387;DHT22;69978;50.096;8.448;2024-01-15T02:48:09;-1.20;99.90
31387;DHT22;69978;50.096;8.448;2024-01-15T02:50:37;-1.20;99.90
31387;DHT22;69978;50.096;8.448;2024-01-15T02:53:03;-1.20;99.90
31387;DHT22;69978;50.096;8.448;2024-01-15T02:55:31;-1.20;99.90
31387;DHT22;69978;50.096;8.448;2024-01-15T02:58:08;-1.30;99.90
31387;DHT22;69978;50.096;8.448;2024-01-15T03:00:34;-1.20;99.90
31387;DHT22;69978;50.096;8.448;2024-01-15T03:03:00;-1.20;99.90
31387;DHT22;69978;50.096;8.448;2024-01-15T03:05:31;-1.20;99.90
31387;DHT22;69978;50.096;8.448;2024-01-15T03:07:57;-1.10;99.90
31387;DHT22;69978;50.096;8.448;2024-01-15T03:10:22;-1.10;99.90
31387;DHT22;69978;50.096;8.448;2024-01-15T03:12:56;-1.10;99.90
31387;DHT22;69978;50.096;8.448;2024-01-15T03:15:25;-1.10;99.90
31387;DHT22;69978;50.096;8.448;2024-01-15T03:18:00;-1.10;99.90
31387;DHT22;69978;50.096;8.448;2024-01-15T03:20:27;-1.10;99.90
31387;DHT22;69978;50.096;8.448;2024-01-15T03:22:55;-1.00;99.90
31387;DHT22;69978;50.096;8.448;2024-01-15T03:25:24;-1.00;99.90
31387;DHT22;69978;50.096;8.448;2024-01-15T03:27:50;-1.00;99.90
31387;DHT22;69978;50.096;8.448;2024-01-15T03:30:15;-1.00;99.90
31387;DHT22;69978;50.096;8.448;2024-01-15T03:32:43;-1.00;99.90
31387;DHT22;69978;50.096;8.448;2024-01-15T03:35:09;-1.00;99.90
31387;DHT22;69978;50.096;8.448;2024-01-15T03:37:35;-0.90;99.90
31387;DHT22;69978;50.096;8.448;2024-01-15T03:40:10;-1.00;99.90
31387;DHT22;69978;50.096;8.448;2024-01-15T03:42:36;-1.00;99.90
31387;DHT22;69978;50.096;8.448;2024-01-15T03:45:04;-1.00;99.90
31387;DHT22;69978;50.096;8.448;2024-01-15T03:47:30;-1.00;99.90
31387;DHT22;69978;50.096;8.448;2024-01-15T03:49:56;-0.90;99.90
31387;DHT22;69978;50.096;8.448;2024-01-15T03:52:21;-0.90;99.90
31387;DHT22;69978;50.096;8.448;2024-01-15T03:54:47;-1.00;99.90
31387;DHT22;69978;50.096;8.448;2024-01-15T03:57:13;-0.90;99.90
31387;DHT22;69978;50.096;8.448;2024-01-15T03:59:41;-0.90;99.90
31387;DHT22;69978;50.096;8.448;2024-01-15T04:02:07;-0.90;99.90
31387;DHT22;69978;50.096;8.448;2024-01-15T04:04:32;-0.90;99.90
31387;DHT22;69978;50.096;8.448;2024-01-15T04:07:01;-1.00;99.90
31387;DHT22;69978;50.096;8.448;2024-01-15T04:09:29;-0.90;99.90
31387;DHT22;69978;50.096;8.448;2024-01-15T04:11:55;-0.90;99.90
31387;DHT22;69978;50.096;8.448;2024-01-15T04:14:21;-0.90;99.90
31387;DHT22;69978;50.096;8.448;2024-01-15T04:16:46;-1.00;99.90
31387;DHT22;69978;50.096;8.448;2024-01-15T04:19:35;-0.90;99.90
31387;DHT22;69978;50.096;8.448;2024-01-15T04:22:11;-0.80;99.90
31387;DHT22;69978;50.096;8.448;2024-01-15T04:24:37;-0.90;99.90
31387;DHT22;69978;50.096;8.448;2024-01-15T04:27:03;-0.90;99.90
31387;DHT22;69978;50.096;8.448;2024-01-15T04:29:38;-0.80;99.90
31387;DHT22;69978;50.096;8.448;2024-01-15T04:32:10;-0.90;99.90
31387;DHT22;69978;50.096;8.448;2024-01-15T04:34:45;-0.90;99.90
31387;DHT22;69978;50.096;8.448;2024-01-15T04:37:23;-0.90;99.90
31387;DHT22;69978;50.096;8.448;2024-01-15T04:39:52;-0.90;99.90
31387;DHT22;69978;50.096;8.448;2024-01-15T04:42:25;-0.90;99.90
31387;DHT22;69978;50.096;8.448;2024-01-15T04:44:50;-0.90;99.90
31387;DHT22;69978;50.096;8.448;2024-01-15T04:47:16;-0.90;99.90
31387;DHT22;69978;50.096;8.448;2024-01-15T04:49:42;-0.90;99.90
31387;DHT22;69978;50.096;8.448;2024-01-15T04:52:11;-0.90;99.90
31387;DHT22;69978;50.096;8.448;2024-01-15T04:54:40;-0.80;99.90
31387;DHT22;69978;50.096;8.448;2024-01-15T04:57:06;-0.90;99.90
31387;DHT22;69978;50.096;8.448;2024-01-15T04:59:32;-0.90;99.90
31387;DHT22;69978;50.096;8.448;2024-01-15T05:01:57;-0.90;99.90
31387;DHT22;69978;50.096;8.448;2024-01-15T05:04:23;-0.90;99.90
31387;DHT22;69978;50.096;8.448;2024-01-15T05:06:50;-0.90;99.90
31387;DHT22;69978;50.096;8.448;2024-01-15T05:09:38;-0.90;99.90
31387;DHT22;69978;50.096;8.448;2024-01-15T05:12:05;-1.00;99.90
31387;DHT22;69978;50.096;8.448;2024-01-15T05:14:39;-0.90;99.90
31387;DHT22;69978;50.096;8.448;2024-01-15T05:17:08;-0.90;99.90
31387;DHT22;69978;50.096;8.448;2024-01-15T05:19:34;-0.90;99.90
31387;DHT22;69978;50.096;8.448;2024-01-15T05:22:02;-0.90;99.90
31387;DHT22;69978;50.096;8.448;2024-01-15T05:24:28;-0.90;99.90
31387;DHT22;69978;50.096;8.448;2024-01-15T05:26:54;-0.90;99.90
31387;DHT22;69978;50.096;8.448;2024-01-15T05:29:24;-0.90;99.90
31387;DHT22;69978;50.096;8.448;2024-01-15T05:31:49;-0.90;99.90
31387;DHT22;69978;50.096;8.448;2024-01-15T05:34:15;-0.90;99.90
31387;DHT22;69978;50.096;8.448;2024-01-15T05:36:40;-0.90;99.90
31387;DHT22;69978;50.096;8.448;2024-01-15T05:39:06;-0.90;99.90
31387;DHT22;69978;50.096;8.448;2024-01-15T05:41:34;-0.90;99.90
31387;DHT22;69978;50.096;8.448;2024-01-15T05:44:00;-0.90;99.90
31387;DHT22;69978;50.096;8.448;2024-01-15T05:46:25;-0.90;99.90
31387;DHT22;69978;50.096;8.448;2024-01-15T05:48:54;-0.90;99.90
31387;DHT22;69978;50.096;8.448;2024-01-15T05:51:22;-0.90;99.90
31387;DHT22;69978;50.096;8.448;2024-01-15T05:53:58;-0.90;99.90
31387;DHT22;69978;50.096;8.448;2024-01-15T05:56:32;-0.90;99.90
31387;DHT22;69978;50.096;8.448;2024-01-15T05:59:23;-0.80;99.90
31387;DHT22;69978;50.096;8.448;2024-01-15T06:02:02;-0.90;99.90
31387;DHT22;69978;50.096;8.448;2024-01-15T06:04:32;-0.90;99.90
31387;DHT22;69978;50.096;8.448;2024-01-15T06:06:58;-0.80;99.90
31387;DHT22;69978;50.096;8.448;2024-01-15T06:09:26;-0.80;99.90
31387;DHT22;69978;50.096;8.448;2024-01-15T06:11:53;-0.80;99.90
31387;DHT22;69978;50.096;8.448;2024-01-15T06:14:19;-0.80;99.90
31387;DHT22;69978;50.096;8.448;2024-01-15T06:16:47;-0.80;99.90
31387;DHT22;69978;50.096;8.448;2024-01-15T06:19:20;-0.80;99.90
31387;DHT22;69978;50.096;8.448;2024-01-15T06:21:48;-0.80;99.90
31387;DHT22;69978;50.096;8.448;2024-01-15T06:28:01;-0.80;99.90
31387;DHT22;69978;50.096;8.448;2024-01-15T06:30:37;-0.80;99.90
31387;DHT22;69978;50.096;8.448;2024-01-15T06:33:05;-0.80;99.90
31387;DHT22;69978;50.096;8.448;2024-01-15T06:35:49;-0.80;99.90
31387;DHT22;69978;50.096;8.448;2024-01-15T06:38:15;-0.80;99.90
31387;DHT22;69978;50.096;8.448;2024-01-15T06:40:42;-0.80;99.90
31387;DHT22;69978;50.096;8.448;2024-01-15T06:43:14;-0.80;99.90
31387;DHT22;69978;50.096;8.448;2024-01-15T06:45:43;-0.80;99.90
31387;DHT22;69978;50.096;8.448;2024-01-15T06:48:09;-0.80;99.90
31387;DHT22;69978;50.096;8.448;2024-01-15T06:50:45;-0.80;99.90
31387;DHT22;69978;50.096;8.448;2024-01-15T06:53:13;-0.80;99.90
31387;DHT22;69978;50.096;8.448;2024-01-15T06:55:49;-0.80;99.90
31387;DHT22;69978;50.096;8.448;2024-01-15T06:58:59;-0.80;99.90
31387;DHT22;69978;50.096;8.448;2024-01-15T07:01:31;-0.80;99.90
31387;DHT22;69978;50.096;8.448;2024-01-15T07:03:59;-0.80;99.90
31387;DHT22;69978;50.096;8.448;2024-01-15T07:06:46;-0.70;99.90
31387;DHT22;69978;50.096;8.448;2024-01-15T07:09:15;-0.70;99.90
31387;DHT22;69978;50.096;8.448;2024-01-15T07:11:54;-0.70;99.90
31387;DHT22;69978;50.096;8.448;2024-01-15T07:14:30;-0.70;99.90
31387;DHT22;69978;50.096;8.448;2024-01-15T07:16:59;-0.60;99.90
31387;DHT22;69978;50.096;8.448;2024-01-15T07:19:24;-0.60;99.90
31387;DHT22;69978;50.096;8.448;2024-01-15T07:21:50;-0.60;99.90
31387;DHT22;69978;50.096;8.448;2024-01-15T07:24:18;-0.70;99.90
31387;DHT22;69978;50.096;8.448;2024-01-15T07:26:49;-0.60;99.90
31387;DHT22;69978;50.096;8.448;2024-01-15T07:29:56;-0.60;99.90
31387;DHT22;69978;50.096;8.448;2024-01-15T07:32:24;-0.60;99.90
31387;DHT22;69978;50.096;8.448;2024-01-15T07:34:50;-0.60;99.90
31387;DHT22;69978;50.096;8.448;2024-01-15T07:37:19;-0.60;99.90
31387;DHT22;69978;50.096;8.448;2024-01-15T07:39:50;-0.60;99.90
31387;DHT22;69978;50.096;8.448;2024-01-15T07:42:23;-0.60;99.90
31387;DHT22;69978;50.096;8.448;2024-01-15T07:44:52;-0.50;99.90
31387;DHT22;69978;50.096;8.448;2024-01-15T07:47:18;-0.50;99.90
31387;DHT22;69978;50.096;8.448;2024-01-15T07:49:46;-0.50;99.90
31387;DHT22;69978;50.096;8.448;2024-01-15T07:52:29;-0.50;99.90
31387;DHT22;69978;50.096;8.448;2024-01-15T07:55:05;-0.50;99.90
31387;DHT22;69978;50.096;8.448;2024-01-15T07:57:33;-0.50;99.90
31387;DHT22;69978;50.096;8.448;2024-01-15T08:00:04;-0.50;99.90
31387;DHT22;69978;50.096;8.448;2024-01-15T08:02:46;-0.50;99.90
31387;DHT22;69978;50.096;8.448;2024-01-15T08:05:32;-0.50;99.90
31387;DHT22;69978;50.096;8.448;2024-01-15T08:14:38;-0.40;99.90
31387;DHT22;69978;50.096;8.448;2024-01-15T08:17:21;-0.40;99.90
31387;DHT22;69978;50.096;8.448;2024-01-15T08:26:04;-0.30;99.90
31387;DHT22;69978;50.096;8.448;2024-01-15T08:28:40;-0.30;99.90
31387;DHT22;69978;50.096;8.448;2024-01-15T08:31:21;-0.30;99.90
31387;DHT22;69978;50.096;8.448;2024-01-15T08:33:57;-0.30;99.90
31387;DHT22;69978;50.096;8.448;2024-01-15T08:36:35;-0.20;99.90
31387;DHT22;69978;50.096;8.448;2024-01-15T08:39:24;-0.20;99.90
31387;DHT22;69978;50.096;8.448;2024-01-15T08:42:00;-0.30;99.90
31387;DHT22;69978;50.096;8.448;2024-01-15T08:44:31;-0.20;99.90
31387;DHT22;69978;50.096;8.448;2024-01-15T08:47:02;-0.20;99.90
31387;DHT22;69978;50.096;8.448;2024-01-15T08:49:30;-0.20;99.90
31387;DHT22;69978;50.096;8.448;2024-01-15T08:52:06;-0.20;99.90
31387;DHT22;69978;50.096;8.448;2024-01-15T08:54:32;-0.20;99.90
31387;DHT22;69978;50.096;8.448;2024-01-15T08:57:01;-0.10;99.90
31387;DHT22;69978;50.096;8.448;2024-01-15T08:59:27;-0.10;99.90
31387;DHT22;69978;50.096;8.448;2024-01-15T09:02:02;-0.10;99.90
31387;DHT22;69978;50.096;8.448;2024-01-15T09:04:30;-0.10;99.90
31387;DHT22;69978;50.096;8.448;2024-01-15T09:06:58;-0.10;99.90
31387;DHT22;69978;50.096;8.448;2024-01-15T09:09:33;0.00;99.90
31387;DHT22;69978;50.096;8.448;2024-01-15T09:12:08;0.00;99.90
31387;DHT22;69978;50.096;8.448;2024-01-15T09:14:36;0.00;99.90
31387;DHT22;69978;50.096;8.448;2024-01-15T09:17:02;0.00;99.90
31387;DHT22;69978;50.096;8.448;2024-01-15T09:19:30;0.10;99.90
31387;DHT22;69978;50.096;8.448;2024-01-15T09:22:07;0.10;99.90
31387;DHT22;69978;50.096;8.448;2024-01-15T09:25:01;0.20;99.90
31387;DHT22;69978;50.096;8.448;2024-01-15T09:27:37;0.20;99.90
31387;DHT22;69978;50.096;8.448;2024-01-15T09:30:05;0.30;99.90
31387;DHT22;69978;50.096;8.448;2024-01-15T09:33:00;0.30;99.90
31387;DHT22;69978;50.096;8.448;2024-01-15T09:35:34;0.30;99.90
31387;DHT22;69978;50.096;8.448;2024-01-15T09:38:13;0.40;99.90
31387;DHT22;69978;50.096;8.448;2024-01-15T09:40:43;0.40;99.90
31387;DHT22;69978;50.096;8.448;2024-01-15T09:43:13;0.50;99.90
31387;DHT22;69978;50.096;8.448;2024-01-15T09:45:42;0.70;99.90
31387;DHT22;69978;50.096;8.448;2024-01-15T09:48:21;0.80;99.90
31387;DHT22;69978;50.096;8.448;2024-01-15T09:50:58;0.90;99.90
31387;DHT22;69978;50.096;8.448;2024-01-15T09:53:27;0.90;99.90
31387;DHT22;69978;50.096;8.448;2024-01-15T09:56:24;0.90;99.90
31387;DHT22;69978;50.096;8.448;2024-01-15T09:58:50;1.00;99.90
31387;DHT22;69978;50.096;8.448;2024-01-15T10:01:20;1.00;99.90
31387;DHT22;69978;50.096;8.448;2024-01-15T10:03:46;1.00;99.90
31387;DHT22;69978;50.096;8.448;2024-01-15T10:06:21;1.00;99.90
31387;DHT22;69978;50.096;8.448;2024-01-15T10:08:57;1.00;99.90
31387;DHT22;69978;50.096;8.448;2024-01-15T10:11:37;1.00;99.90
31387;DHT22;69978;50.096;8.448;2024-01-15T10:14:15;1.10;99.90
31387;DHT22;69978;50.096;8.448;2024-01-15T10:16:42;1.20;99.90
31387;DHT22;69978;50.096;8.448;2024-01-15T10:19:08;1.20;99.90
31387;DHT22;69978;50.096;8.448;2024-01-15T10:21:34;1.30;99.90
31387;DHT22;69978;50.096;8.448;2024-01-15T10:24:07;1.20;99.90
31387;DHT22;69978;50.096;8.448;2024-01-15T10:26:35;1.30;99.90
31387;DHT22;69978;50.096;8.448;2024-01-15T10:29:01;1.30;99.90
31387;DHT22;69978;50.096;8.448;2024-01-15T10:31:27;1.30;99.90
31387;DHT22;69978;50.096;8.448;2024-01-15T10:34:10;1.40;99.90
31387;DHT22;69978;50.096;8.448;2024-01-15T10:36:45;1.40;99.90
31387;DHT22;69978;50.096;8.448;2024-01-15T10:39:14;1.40;99.90
31387;DHT22;69978;50.096;8.448;2024-01-15T10:41:39;1.40;99.90
31387;DHT22;69978;50.096;8.448;2024-01-15T10:44:05;1.50;99.90
31387;DHT22;69978;50.096;8.448;2024-01-15T10:46:31;1.50;99.90
31387;DHT22;69978;50.096;8.448;2024-01-15T10:48:58;1.50;99.90
31387;DHT22;69978;50.096;8.448;2024-01-15T10:51:23;1.40;99.90
31387;DHT22;69978;50.096;8.448;2024-01-15T10:53:52;1.40;99.90
31387;DHT22;69978;50.096;8.448;2024-01-15T10:56:22;1.40;99.90
31387;DHT22;69978;50.096;8.448;2024-01-15T10:58:54;1.60;99.90
31387;DHT22;69978;50.096;8.448;2024-01-15T11:01:20;1.70;99.90
31387;DHT22;69978;50.096;8.448;2024-01-15T11:03:55;1.70;99.90
31387;DHT22;69978;50.096;8.448;2024-01-15T11:06:49;1.70;99.90
31387;DHT22;69978;50.096;8.448;2024-01-15T11:09:15;1.70;99.90
31387;DHT22;69978;50.096;8.448;2024-01-15T11:11:46;1.60;99.90
31387;DHT22;69978;50.096;8.448;2024-01-15T11:17:01;1.70;99.90
31387;DHT22;69978;50.096;8.448;2024-01-15T11:22:55;1.80;99.90
31387;DHT22;69978;50.096;8.448;2024-01-15T11:25:13;1.80;99.90
31387;DHT22;69978;50.096;8.448;2024-01-15T11:27:44;1.80;99.90
31387;DHT22;69978;50.096;8.448;2024-01-15T11:30:16;1.80;99.90
31387;DHT22;69978;50.096;8.448;2024-01-15T11:32:42;1.90;99.90
31387;DHT22;69978;50.096;8.448;2024-01-15T11:35:10;1.80;99.90
31387;DHT22;69978;50.096;8.448;2024-01-15T11:42:58;1.80;99.90
31387;DHT22;69978;50.096;8.448;2024-01-15T11:45:27;1.80;99.90
31387;DHT22;69978;50.096;8.448;2024-01-15T11:48:12;1.80;99.90
31387;DHT22;69978;50.096;8.448;2024-01-15T11:50:44;1.80;99.90
31387;DHT22;69978;50.096;8.448;2024-01-15T11:59:32;1.90;99.90
31387;DHT22;69978;50.096;8.448;2024-01-15T12:02:00;1.80;99.90
31387;DHT22;69978;50.096;8.448;2024-01-15T12:04:25;1.90;99.90
31387;DHT22;69978;50.096;8.448;2024-01-15T12:06:52;1.90;99.90
31387;DHT22;69978;50.096;8.448;2024-01-15T12:09:19;1.90;99.90
31387;DHT22;69978;50.096;8.448;2024-01-15T12:11:50;1.90;99.90
31387;DHT22;69978;50.096;8.448;2024-01-15T12:14:16;1.90;99.90
31387;DHT22;69978;50.096;8.448;2024-01-15T12:16:42;1.90;99.90
31387;DHT22;69978;50.096;8.448;2024-01-15T12:19:08;1.90;99.90
31387;DHT22;69978;50.096;8.448;2024-01-15T12:21:34;1.90;99.90
31387;DHT22;69978;50.096;8.448;2024-01-15T12:24:03;1.90;99.90
31387;DHT22;69978;50.096;8.448;2024-01-15T12:26:29;1.90;99.90
31387;DHT22;69978;50.096;8.448;2024-01-15T12:28:55;1.90;99.90
31387;DHT22;69978;50.096;8.448;2024-01-15T12:31:21;1.90;99.90
31387;DHT22;69978;50.096;8.448;2024-01-15T12:33:46;1.90;99.90
31387;DHT22;69978;50.096;8.448;2024-01-15T12:36:13;2.00;99.90
31387;DHT22;69978;50.096;8.448;2024-01-15T12:38:38;2.00;99.90
31387;DHT22;69978;50.096;8.448;2024-01-15T12:41:04;1.90;99.90
31387;DHT22;69978;50.096;8.448;2024-01-15T12:43:30;1.90;99.90
31387;DHT22;69978;50.096;8.448;2024-01-15T12:45:58;1.90;99.90
31387;DHT22;69978;50.096;8.448;2024-01-15T12:48:23;1.90;99.90
31387;DHT22;69978;50.096;8.448;2024-01-15T12:50:52;1.90;99.90
31387;DHT22;69978;50.096;8.448;2024-01-15T12:53:17;1.90;99.90
31387;DHT22;69978;50.096;8.448;2024-01-15T12:55:43;1.90;99.90
31387;DHT22;69978;50.096;8.448;2024-01-15T12:58:10;1.90;99.90
31387;DHT22;69978;50.096;8.448;2024-01-15T13:00:35;1.90;99.90
31387;DHT22;69978;50.096;8.448;2024-01-15T13:03:02;2.00;99.90
31387;DHT22;69978;50.096;8.448;2024-01-15T13:05:29;1.90;99.90
31387;DHT22;69978;50.096;8.448;2024-01-15T13:07:56;2.00;99.90
31387;DHT22;69978;50.096;8.448;2024-01-15T13:10:22;1.90;99.90
31387;DHT22;69978;50.096;8.448;2024-01-15T13:12:47;1.90;99.90
31387;DHT22;69978;50.096;8.448;2024-01-15T13:15:13;2.00;99.90
31387;DHT22;69978;50.096;8.448;2024-01-15T13:17:39;2.00;99.90
31387;DHT22;69978;50.096;8.448;2024-01-15T13:20:06;2.00;99.90
31387;DHT22;69978;50.096;8.448;2024-01-15T13:22:32;2.00;99.90
31387;DHT22;69978;50.096;8.448;2024-01-15T13:24:58;2.00;99.90
31387;DHT22;69978;50.096;8.448;2024-01-15T13:27:25;2.00;99.90
31387;DHT22;69978;50.096;8.448;2024-01-15T13:29:50;2.00;99.90
31387;DHT22;69978;50.096;8.448;2024-01-15T13:32:24;2.00;99.90
31387;DHT22;69978;50.096;8.448;2024-01-15T13:34:50;2.10;99.90
31387;DHT22;69978;50.096;8.448;2024-01-15T13:37:16;2.10;99.90
31387;DHT22;69978;50.096;8.448;2024-01-15T13:39:43;2.10;99.90
31387;DHT22;69978;50.096;8.448;2024-01-15T13:42:08;2.10;99.90
31387;DHT22;69978;50.096;8.448;2024-01-15T13:44:37;2.10;99.90
31387;DHT22;69978;50.096;8.448;2024-01-15T13:47:04;2.10;99.90
31387;DHT22;69978;50.096;8.448;2024-01-15T13:49:30;2.10;99.90
31387;DHT22;69978;50.096;8.448;2024-01-15T13:51:56;2.10;99.90
31387;DHT22;69978;50.096;8.448;2024-01-15T13:54:22;2.10;99.90
31387;DHT22;69978;50.096;8.448;2024-01-15T13:56:48;2.10;99.90
31387;DHT22;69978;50.096;8.448;2024-01-15T13:59:13;2.00;99.90
31387;DHT22;69978;50.096;8.448;2024-01-15T14:01:39;2.00;99.90
31387;DHT22;69978;50.096;8.448;2024-01-15T14:04:05;2.10;99.90
31387;DHT22;69978;50.096;8.448;2024-01-15T14:06:30;2.00;99.90
31387;DHT22;69978;50.096;8.448;2024-01-15T14:08:56;2.00;99.90
31387;DHT22;69978;50.096;8.448;2024-01-15T14:11:21;2.00;99.90
31387;DHT22;69978;50.096;8.448;2024-01-15T14:13:48;2.00;99.90
31387;DHT22;69978;50.096;8.448;2024-01-15T14:16:16;2.00;99.90
31387;DHT22;69978;50.096;8.448;2024-01-15T14:18:42;2.00;99.90
31387;DHT22;69978;50.096;8.448;2024-01-15T14:21:08;2.00;99.90
31387;DHT22;69978;50.096;8.448;2024-01-15T14:23:33;2.10;99.90
31387;DHT22;69978;50.096;8.448;2024-01-15T14:25:59;2.10;99.90
31387;DHT22;69978;50.096;8.448;2024-01-15T14:28:25;2.10;99.90
31387;DHT22;69978;50.096;8.448;2024-01-15T14:30:50;2.10;99.90
31387;DHT22;69978;50.096;8.448;2024-01-15T14:33:16;2.10;99.90
31387;DHT22;69978;50.096;8.448;2024-01-15T14:35:42;2.20;99.90
31387;DHT22;69978;50.096;8.448;2024-01-15T14:38:07;2.20;99.90
31387;DHT22;69978;50.096;8.448;2024-01-15T14:40:34;2.20;99.90
31387;DHT22;69978;50.096;8.448;2024-01-15T14:43:01;2.30;99.90
31387;DHT22;69978;50.096;8.448;2024-01-15T14:45:27;2.30;99.90
31387;DHT22;69978;50.096;8.448;2024-01-15T14:47:53;2.30;99.90
31387;DHT22;69978;50.096;8.448;2024-01-15T14:50:19;2.30;99.90
31387;DHT22;69978;50.096;8.448;2024-01-15T14:52:45;2.20;99.90
31387;DHT22;69978;50.096;8.448;2024-01-15T14:55:11;2.20;99.90
31387;DHT22;69978;50.096;8.448;2024-01-15T14:57:37;2.20;99.90
31387;DHT22;69978;50.096;8.448;2024-01-15T15:00:04;2.20;99.90
31387;DHT22;69978;50.096;8.448;2024-01-15T15:02:36;2.20;99.90
31387;DHT22;69978;50.096;8.448;2024-01-15T15:05:03;2.20;99.90
31387;DHT22;69978;50.096;8.448;2024-01-15T15:07:28;2.10;99.90
31387;DHT22;69978;50.096;8.448;2024-01-15T15:09:54;2.10;99.90
31387;DHT22;69978;50.096;8.448;2024-01-15T15:12:20;2.10;99.90
31387;DHT22;69978;50.096;8.448;2024-01-15T15:14:45;2.20;99.90
31387;DHT22;69978;50.096;8.448;2024-01-15T15:17:11;2.20;99.90
31387;DHT22;69978;50.096;8.448;2024-01-15T15:19:37;2.20;99.90
31387;DHT22;69978;50.096;8.448;2024-01-15T15:22:03;2.20;99.90
31387;DHT22;69978;50.096;8.448;2024-01-15T15:24:29;2.20;99.90
31387;DHT22;69978;50.096;8.448;2024-01-15T15:26:54;2.20;99.90
31387;DHT22;69978;50.096;8.448;2024-01-15T15:29:20;2.20;99.90
31387;DHT22;69978;50.096;8.448;2024-01-15T15:31:45;2.10;99.90
31387;DHT22;69978;50.096;8.448;2024-01-15T15:34:11;2.20;99.90
31387;DHT22;69978;50.096;8.448;2024-01-15T15:36:37;2.20;99.90
31387;DHT22;69978;50.096;8.448;2024-01-15T15:39:02;2.10;99.90
31387;DHT22;69978;50.096;8.448;2024-01-15T15:41:28;2.10;99.90
31387;DHT22;69978;50.096;8.448;2024-01-15T15:43:54;2.10;99.90
31387;DHT22;69978;50.096;8.448;2024-01-15T15:46:20;2.10;99.90
31387;DHT22;69978;50.096;8.448;2024-01-15T15:48:46;2.10;99.90
31387;DHT22;69978;50.096;8.448;2024-01-15T15:51:12;2.00;99.90
31387;DHT22;69978;50.096;8.448;2024-01-15T15:53:37;2.00;99.90
31387;DHT22;69978;50.096;8.448;2024-01-15T15:56:03;2.00;99.90
31387;DHT22;69978;50.096;8.448;2024-01-15T15:58:29;2.00;99.90
31387;DHT22;69978;50.096;8.448;2024-01-15T16:00:55;1.90;99.90
31387;DHT22;69978;50.096;8.448;2024-01-15T16:03:20;2.00;99.90
31387;DHT22;69978;50.096;8.448;2024-01-15T16:05:46;2.00;99.90
31387;DHT22;69978;50.096;8.448;2024-01-15T16:08:11;2.00;99.90
31387;DHT22;69978;50.096;8.448;2024-01-15T16:10:38;2.00;99.90
31387;DHT22;69978;50.096;8.448;2024-01-15T16:13:04;1.90;99.90
31387;DHT22;69978;50.096;8.448;2024-01-15T16:15:31;1.90;99.90
31387;DHT22;69978;50.096;8.448;2024-01-15T16:17:56;1.90;99.90
31387;DHT22;69978;50.096;8.448;2024-01-15T16:20:23;1.90;99.90
31387;DHT22;69978;50.096;8.448;2024-01-15T16:22:48;1.90;99.90
31387;DHT22;69978;50.096;8.448;2024-01-15T16:25:15;1.90;99.90